Terminal Aerodrome Forecast
Issued by NWS Grand Junction, CO

Home | Current Version | Previous Version | Text Only | Print | Product List | Glossary On
Versions: 1 2 3 4 5 6 7 8 9 10 11 12 13 14 15
000
FTUS45 KGJT 240100 AAC
TAFGJT
TAF AMD
KGJT 240100Z 2401/2424 01008KT P6SM VCSH FEW060 BKN080 OVC090
     FM240400 07009KT P6SM BKN100
     FM241000 32006KT P6SM BKN090
     FM242000 30010KT P6SM SCT070=

USA.gov is the U.S. government's official web portal to all federal, state and local government web resources and services.